»·PEaware :: N143VT KMSO-KOLM

N143VT :: KMSO-KOLM

FLIGHT INFORMATION

Flight Status: Arrived
Operator: Privately registered:
United States
More flights under this callsign
Pilot: Anonymous 16492 (16492)
Aircraft: BOMBARDIER BD-100 CHALLENGER 300
(CL30)
More flights by this aircraft type
Origin: KMSO Missoula Intl
United States
Destination: KOLM Olympia
United States
More flights between these airports :: More routes between these airports
Route: +DIDLY5 MLP J70 SEA HOOME
File this flight plan on PilotEdge
Remarks:
Altitude:
(Current/Filed)
36,000ft
Speed:
(Current/Filed)
440kts
Departed: 16-Oct-18 06:15 PM
Arrived: 16-Oct-18 07:23 PM
Distance/Time
Traveled:
361nm/1:08
Distance/Time
To Go:
Arrived

Flight Plot

Page will automatically refresh every two minutes.

Flight plan parsing failed; only flown route is shown


Map Options




Map Legend


Flown Route
Filed Route
Departure Airport
Arrival Airport
Navaid (VOR, NDB)
Fix

Horizontal Profiles

Position Reports

Time Latitude Longitude Heading Altitude Ground
Speed
16-Oct-18 17:50 46.914859 -114.080697 266 3212ft 0kts
16-Oct-18 17:51 46.914859 -114.080697 266 3212ft 0kts
16-Oct-18 17:52 46.914859 -114.080697 266 3212ft 0kts
16-Oct-18 17:53 46.914859 -114.080697 266 3212ft 0kts
16-Oct-18 17:54 46.914859 -114.080697 266 3212ft 0kts
16-Oct-18 17:55 46.914859 -114.080697 266 3212ft 0kts
16-Oct-18 17:56 46.914859 -114.080697 266 3212ft 0kts
16-Oct-18 17:57 46.914859 -114.080697 266 3212ft 0kts
16-Oct-18 17:58 46.914859 -114.080697 266 3212ft 0kts
16-Oct-18 18:05 46.914860 -114.080636 269 3211ft 0kts
16-Oct-18 18:06 46.914860 -114.080636 269 3211ft 0kts
16-Oct-18 18:07 46.914860 -114.080636 269 3211ft 0kts
16-Oct-18 18:08 46.914860 -114.080636 269 3211ft 0kts
16-Oct-18 18:09 46.914860 -114.080636 269 3211ft 0kts
16-Oct-18 18:10 46.914860 -114.080636 269 3211ft 0kts
16-Oct-18 18:11 46.914860 -114.080636 269 3211ft 0kts
16-Oct-18 18:12 46.914860 -114.080654 269 3211ft 1kts
16-Oct-18 18:13 46.912339 -114.081434 130 3212ft 9kts
16-Oct-18 18:14 46.910081 -114.077619 130 3212ft 7kts
16-Oct-18 18:15 46.908973 -114.077174 180 3211ft 0kts
16-Oct-18 18:16 46.908296 -114.077653 244 3211ft 13kts
16-Oct-18 18:17 46.917439 -114.094000 310 3415ft 154kts
16-Oct-18 18:18 46.951873 -114.156215 310 7207ft 213kts
16-Oct-18 18:19 46.990969 -114.223908 313 11337ft 230kts
16-Oct-18 18:20 47.034967 -114.297726 314 14008ft 275kts
16-Oct-18 18:21 47.090794 -114.391108 313 16604ft 312kts
16-Oct-18 18:22 47.148607 -114.488691 313 19985ft 327kts
16-Oct-18 18:23 47.195018 -114.605550 294 22926ft 344kts
16-Oct-18 18:24 47.232298 -114.746421 292 24973ft 372kts
16-Oct-18 18:25 47.263577 -114.868453 292 26383ft 396kts
16-Oct-18 18:26 47.308907 -115.047972 291 28714ft 408kts
16-Oct-18 18:27 47.341764 -115.179274 291 30091ft 417kts
16-Oct-18 18:28 47.381504 -115.339272 290 31680ft 423kts
16-Oct-18 18:29 47.421288 -115.500569 290 33580ft 418kts
16-Oct-18 18:30 47.453455 -115.660710 273 35201ft 415kts
16-Oct-18 18:31 47.455162 -115.859603 270 36408ft 427kts
16-Oct-18 18:32 47.454555 -116.009696 270 36407ft 452kts
16-Oct-18 18:33 47.453121 -116.194165 270 36401ft 447kts
16-Oct-18 18:34 47.451319 -116.376355 270 36398ft 444kts
16-Oct-18 18:35 47.449266 -116.554011 270 36401ft 442kts
16-Oct-18 18:36 47.446911 -116.733445 269 36401ft 440kts
16-Oct-18 18:37 47.444265 -116.913713 269 36403ft 439kts
16-Oct-18 18:38 47.441394 -117.091793 268 36401ft 438kts
16-Oct-18 18:39 47.438179 -117.271073 268 36402ft 438kts
16-Oct-18 18:40 47.434702 -117.450113 268 36401ft 438kts
16-Oct-18 18:41 47.430930 -117.630169 268 36400ft 439kts
16-Oct-18 18:42 47.426910 -117.808761 267 36403ft 439kts
16-Oct-18 18:43 47.422587 -117.988386 267 36402ft 439kts
16-Oct-18 18:44 47.417981 -118.168075 267 36402ft 440kts
16-Oct-18 18:45 47.413100 -118.347562 267 36401ft 440kts
16-Oct-18 18:46 47.407899 -118.528332 267 36387ft 440kts
16-Oct-18 18:47 47.402507 -118.706061 267 36384ft 440kts
16-Oct-18 18:48 47.396789 -118.885733 266 36384ft 441kts
16-Oct-18 18:49 47.390778 -119.065406 266 35283ft 443kts
16-Oct-18 18:50 47.384417 -119.246510 266 33547ft 447kts
16-Oct-18 18:51 47.378091 -119.428443 270 32116ft 438kts
16-Oct-18 18:52 47.383608 -119.604886 272 30776ft 430kts
16-Oct-18 18:53 47.388870 -119.778238 272 29451ft 421kts
16-Oct-18 18:54 47.393753 -119.948264 272 28138ft 412kts
16-Oct-18 18:55 47.398295 -120.115076 272 26815ft 405kts
16-Oct-18 18:56 47.402505 -120.278419 273 25484ft 397kts
16-Oct-18 18:57 47.406418 -120.439177 273 24128ft 390kts
16-Oct-18 18:58 47.410054 -120.597580 273 22727ft 384kts
16-Oct-18 18:59 47.413373 -120.751362 272 21304ft 378kts
16-Oct-18 19:00 47.416468 -120.904244 272 19857ft 371kts
16-Oct-18 19:01 47.419379 -121.055440 270 18181ft 370kts
16-Oct-18 19:02 47.421795 -121.193900 270 16867ft 360kts
16-Oct-18 19:03 47.424155 -121.338527 270 16321ft 355kts
16-Oct-18 19:04 47.426317 -121.481507 270 15561ft 352kts
16-Oct-18 19:05 47.428292 -121.622551 270 14044ft 343kts
16-Oct-18 19:06 47.430010 -121.758447 269 12389ft 335kts
16-Oct-18 19:07 47.431526 -121.889176 270 11431ft 293kts
16-Oct-18 19:08 47.432724 -122.005066 270 9586ft 285kts
16-Oct-18 19:09 47.433778 -122.116646 270 7613ft 276kts
16-Oct-18 19:10 47.434702 -122.224947 271 5896ft 246kts
16-Oct-18 19:11 47.428713 -122.326714 251 5912ft 268kts
16-Oct-18 19:12 47.403780 -122.429724 250 5905ft 267kts
16-Oct-18 19:13 47.378128 -122.531600 250 5587ft 258kts
16-Oct-18 19:14 47.353464 -122.628031 249 3904ft 231kts
16-Oct-18 19:15 47.332244 -122.710241 249 3910ft 205kts
16-Oct-18 19:16 47.310471 -122.789003 227 3897ft 205kts
16-Oct-18 19:17 47.259649 -122.813939 193 2786ft 171kts
16-Oct-18 19:18 47.211492 -122.830602 193 2807ft 182kts
16-Oct-18 19:19 47.162957 -122.846402 192 2294ft 163kts
16-Oct-18 19:20 47.121116 -122.859619 191 2304ft 160kts
16-Oct-18 19:21 47.078473 -122.872503 191 2231ft 147kts
16-Oct-18 19:22 47.037962 -122.884537 191 1462ft 138kts
16-Oct-18 19:23 47.003093 -122.894763 191 782ft 122kts
16-Oct-18 19:24 46.970615 -122.904051 191 215ft 97kts
16-Oct-18 19:25 46.963590 -122.904878 92 214ft 0kts
16-Oct-18 19:26 46.963582 -122.904606 92 214ft 8kts
16-Oct-18 19:27 46.965756 -122.901495 12 214ft 22kts
16-Oct-18 19:28 46.970819 -122.899054 46 214ft 21kts
16-Oct-18 19:29 46.972949 -122.896602 323 214ft 0kts
16-Oct-18 19:30 46.973135 -122.896841 315 211ft 0kts

Navigation Log

Ident Type
Flight plan parsing failed, navigation log unavailable